sensor_id;sensor_type;location;lat;lon;timestamp;P1;P2;P0
75960;PMS7003;64644;48.914;2.254;2023-07-29T00:01:57;8.25;8.25;6.00
75960;PMS7003;64644;48.914;2.254;2023-07-29T00:04:23;7.25;7.25;5.25
75960;PMS7003;64644;48.914;2.254;2023-07-29T00:06:48;6.75;6.75;5.50
75960;PMS7003;64644;48.914;2.254;2023-07-29T00:09:13;5.25;5.25;4.00
75960;PMS7003;64644;48.914;2.254;2023-07-29T00:11:39;7.25;7.00;5.25
75960;PMS7003;64644;48.914;2.254;2023-07-29T00:14:04;8.00;7.00;5.50
75960;PMS7003;64644;48.914;2.254;2023-07-29T00:16:29;5.50;5.50;4.50
75960;PMS7003;64644;48.914;2.254;2023-07-29T00:18:55;6.75;5.25;5.00
75960;PMS7003;64644;48.914;2.254;2023-07-29T00:21:20;8.00;8.00;5.00
75960;PMS7003;64644;48.914;2.254;2023-07-29T00:23:45;8.00;6.50;5.00
75960;PMS7003;64644;48.914;2.254;2023-07-29T00:26:11;5.00;5.00;4.75
75960;PMS7003;64644;48.914;2.254;2023-07-29T00:28:36;6.00;6.00;4.00
75960;PMS7003;64644;48.914;2.254;2023-07-29T00:31:02;7.25;6.00;5.00
75960;PMS7003;64644;48.914;2.254;2023-07-29T00:33:27;7.00;7.00;6.00
75960;PMS7003;64644;48.914;2.254;2023-07-29T00:35:53;7.00;5.50;4.00
75960;PMS7003;64644;48.914;2.254;2023-07-29T00:38:18;3.50;3.50;3.00
75960;PMS7003;64644;48.914;2.254;2023-07-29T00:40:43;3.00;3.00;3.00
75960;PMS7003;64644;48.914;2.254;2023-07-29T00:43:09;3.00;3.00;3.00
75960;PMS7003;64644;48.914;2.254;2023-07-29T00:45:34;3.00;3.00;2.00
75960;PMS7003;64644;48.914;2.254;2023-07-29T00:48:01;3.25;3.25;2.75
75960;PMS7003;64644;48.914;2.254;2023-07-29T00:50:27;1.00;1.00;1.00
75960;PMS7003;64644;48.914;2.254;2023-07-29T00:52:54;2.25;2.25;2.00
75960;PMS7003;64644;48.914;2.254;2023-07-29T00:55:21;1.50;1.50;1.50
75960;PMS7003;64644;48.914;2.254;2023-07-29T00:57:46;2.50;1.50;1.25
75960;PMS7003;64644;48.914;2.254;2023-07-29T01:00:14;3.50;3.50;2.25
75960;PMS7003;64644;48.914;2.254;2023-07-29T01:02:41;1.00;1.00;1.00
75960;PMS7003;64644;48.914;2.254;2023-07-29T01:05:07;3.75;2.00;2.00
75960;PMS7003;64644;48.914;2.254;2023-07-29T01:07:37;2.00;2.00;1.00
75960;PMS7003;64644;48.914;2.254;2023-07-29T01:15:25;2.25;1.75;1.75
75960;PMS7003;64644;48.914;2.254;2023-07-29T01:17:56;1.25;1.25;1.00
75960;PMS7003;64644;48.914;2.254;2023-07-29T01:20:27;1.25;1.25;1.00
75960;PMS7003;64644;48.914;2.254;2023-07-29T01:22:56;1.50;1.50;1.00
75960;PMS7003;64644;48.914;2.254;2023-07-29T01:25:22;2.25;2.00;1.75
75960;PMS7003;64644;48.914;2.254;2023-07-29T01:27:48;2.25;2.25;1.50
75960;PMS7003;64644;48.914;2.254;2023-07-29T01:30:16;1.00;1.00;1.00
75960;PMS7003;64644;48.914;2.254;2023-07-29T01:32:53;1.75;1.50;1.00
75960;PMS7003;64644;48.914;2.254;2023-07-29T01:35:27;1.00;1.00;1.00
75960;PMS7003;64644;48.914;2.254;2023-07-29T01:38:09;1.50;1.50;1.50
75960;PMS7003;64644;48.914;2.254;2023-07-29T01:40:39;1.25;1.25;1.00
75960;PMS7003;64644;48.914;2.254;2023-07-29T01:43:06;1.00;1.00;1.00
75960;PMS7003;64644;48.914;2.254;2023-07-29T01:45:33;0.75;0.75;0.00
75960;PMS7003;64644;48.914;2.254;2023-07-29T01:48:02;2.00;2.00;1.00
75960;PMS7003;64644;48.914;2.254;2023-07-29T01:50:28;2.25;1.75;1.00
75960;PMS7003;64644;48.914;2.254;2023-07-29T01:52:54;2.00;2.00;2.00
75960;PMS7003;64644;48.914;2.254;2023-07-29T01:55:19;1.75;1.50;1.00
75960;PMS7003;64644;48.914;2.254;2023-07-29T01:57:44;1.00;0.25;0.00
75960;PMS7003;64644;48.914;2.254;2023-07-29T02:00:10;1.00;1.00;1.00
75960;PMS7003;64644;48.914;2.254;2023-07-29T02:02:36;0.75;0.75;0.75
75960;PMS7003;64644;48.914;2.254;2023-07-29T02:05:01;1.00;1.00;1.00
75960;PMS7003;64644;48.914;2.254;2023-07-29T02:07:26;1.00;1.00;1.00
75960;PMS7003;64644;48.914;2.254;2023-07-29T02:09:52;2.25;2.00;1.00
75960;PMS7003;64644;48.914;2.254;2023-07-29T02:12:18;0.00;0.00;0.00
75960;PMS7003;64644;48.914;2.254;2023-07-29T02:14:43;1.00;1.00;1.00
75960;PMS7003;64644;48.914;2.254;2023-07-29T02:17:08;1.00;1.00;1.00
75960;PMS7003;64644;48.914;2.254;2023-07-29T02:19:34;1.00;1.00;1.00
75960;PMS7003;64644;48.914;2.254;2023-07-29T02:22:00;0.25;0.25;0.00
75960;PMS7003;64644;48.914;2.254;2023-07-29T02:24:25;1.00;1.00;1.00
75960;PMS7003;64644;48.914;2.254;2023-07-29T02:26:50;1.00;1.00;1.00
75960;PMS7003;64644;48.914;2.254;2023-07-29T02:29:16;2.00;2.00;1.00
75960;PMS7003;64644;48.914;2.254;2023-07-29T02:31:41;1.00;1.00;1.00
75960;PMS7003;64644;48.914;2.254;2023-07-29T02:34:06;0.00;0.00;0.00
75960;PMS7003;64644;48.914;2.254;2023-07-29T02:36:32;0.50;0.50;0.00
75960;PMS7003;64644;48.914;2.254;2023-07-29T02:38:57;0.00;0.00;0.00
75960;PMS7003;64644;48.914;2.254;2023-07-29T02:41:23;1.00;1.00;0.75
75960;PMS7003;64644;48.914;2.254;2023-07-29T02:43:48;1.00;1.00;0.75
75960;PMS7003;64644;48.914;2.254;2023-07-29T02:46:15;2.00;1.00;0.00
75960;PMS7003;64644;48.914;2.254;2023-07-29T02:48:41;0.25;0.25;0.00
75960;PMS7003;64644;48.914;2.254;2023-07-29T02:51:07;0.00;0.00;0.00
75960;PMS7003;64644;48.914;2.254;2023-07-29T02:53:32;1.00;1.00;0.75
75960;PMS7003;64644;48.914;2.254;2023-07-29T02:55:57;1.00;1.00;0.00
75960;PMS7003;64644;48.914;2.254;2023-07-29T02:58:23;2.25;1.00;1.00
75960;PMS7003;64644;48.914;2.254;2023-07-29T03:00:48;0.00;0.00;0.00
75960;PMS7003;64644;48.914;2.254;2023-07-29T03:03:13;0.00;0.00;0.00
75960;PMS7003;64644;48.914;2.254;2023-07-29T03:05:39;0.50;0.00;0.00
75960;PMS7003;64644;48.914;2.254;2023-07-29T03:08:05;0.00;0.00;0.00
75960;PMS7003;64644;48.914;2.254;2023-07-29T03:10:30;0.00;0.00;0.00
75960;PMS7003;64644;48.914;2.254;2023-07-29T03:12:56;0.00;0.00;0.00
75960;PMS7003;64644;48.914;2.254;2023-07-29T03:15:24;0.00;0.00;0.00
75960;PMS7003;64644;48.914;2.254;2023-07-29T03:17:50;0.25;0.25;0.00
75960;PMS7003;64644;48.914;2.254;2023-07-29T03:20:16;1.00;1.00;0.00
75960;PMS7003;64644;48.914;2.254;2023-07-29T03:22:43;0.75;0.75;0.25
75960;PMS7003;64644;48.914;2.254;2023-07-29T03:25:08;0.00;0.00;0.00
75960;PMS7003;64644;48.914;2.254;2023-07-29T03:27:34;1.00;0.75;0.00
75960;PMS7003;64644;48.914;2.254;2023-07-29T03:30:01;2.75;1.00;0.00
75960;PMS7003;64644;48.914;2.254;2023-07-29T03:32:27;0.00;0.00;0.00
75960;PMS7003;64644;48.914;2.254;2023-07-29T03:34:52;0.00;0.00;0.00
75960;PMS7003;64644;48.914;2.254;2023-07-29T03:37:18;0.25;0.25;0.00
75960;PMS7003;64644;48.914;2.254;2023-07-29T03:39:43;0.00;0.00;0.00
75960;PMS7003;64644;48.914;2.254;2023-07-29T03:42:08;0.50;0.50;0.00
75960;PMS7003;64644;48.914;2.254;2023-07-29T03:44:34;0.00;0.00;0.00
75960;PMS7003;64644;48.914;2.254;2023-07-29T03:47:00;3.00;1.00;1.00
75960;PMS7003;64644;48.914;2.254;2023-07-29T03:49:25;0.00;0.00;0.00
75960;PMS7003;64644;48.914;2.254;2023-07-29T03:51:51;0.00;0.00;0.00
75960;PMS7003;64644;48.914;2.254;2023-07-29T03:54:16;1.00;1.00;0.75
75960;PMS7003;64644;48.914;2.254;2023-07-29T03:56:41;2.75;1.25;0.00
75960;PMS7003;64644;48.914;2.254;2023-07-29T03:59:07;0.00;0.00;0.00
75960;PMS7003;64644;48.914;2.254;2023-07-29T04:01:32;1.00;0.25;0.25
75960;PMS7003;64644;48.914;2.254;2023-07-29T04:03:58;0.00;0.00;0.00
75960;PMS7003;64644;48.914;2.254;2023-07-29T04:06:24;1.00;1.00;1.00
75960;PMS7003;64644;48.914;2.254;2023-07-29T04:08:50;1.00;1.00;1.00
75960;PMS7003;64644;48.914;2.254;2023-07-29T04:11:15;1.00;1.00;1.00
75960;PMS7003;64644;48.914;2.254;2023-07-29T04:13:41;1.25;1.00;1.00
75960;PMS7003;64644;48.914;2.254;2023-07-29T04:16:06;1.00;1.00;1.00
75960;PMS7003;64644;48.914;2.254;2023-07-29T04:18:32;2.00;2.00;1.00
75960;PMS7003;64644;48.914;2.254;2023-07-29T04:20:58;1.00;1.00;0.75
75960;PMS7003;64644;48.914;2.254;2023-07-29T04:23:23;1.75;1.75;1.25
75960;PMS7003;64644;48.914;2.254;2023-07-29T04:25:48;3.75;1.00;1.00
75960;PMS7003;64644;48.914;2.254;2023-07-29T04:28:14;1.00;1.00;1.00
75960;PMS7003;64644;48.914;2.254;2023-07-29T04:30:40;2.00;1.50;1.00
75960;PMS7003;64644;48.914;2.254;2023-07-29T04:33:06;1.00;1.00;1.00
75960;PMS7003;64644;48.914;2.254;2023-07-29T04:35:31;1.75;1.75;1.00
75960;PMS7003;64644;48.914;2.254;2023-07-29T04:37:56;2.50;2.50;1.75
75960;PMS7003;64644;48.914;2.254;2023-07-29T04:40:22;1.25;1.25;1.00
75960;PMS7003;64644;48.914;2.254;2023-07-29T04:42:48;3.25;1.25;1.00
75960;PMS7003;64644;48.914;2.254;2023-07-29T04:45:13;1.50;1.50;1.50
75960;PMS7003;64644;48.914;2.254;2023-07-29T04:47:39;2.00;2.00;1.50
75960;PMS7003;64644;48.914;2.254;2023-07-29T04:50:04;1.00;1.00;1.00
75960;PMS7003;64644;48.914;2.254;2023-07-29T04:52:31;3.50;3.50;2.75
75960;PMS7003;64644;48.914;2.254;2023-07-29T04:54:56;1.00;1.00;0.75
75960;PMS7003;64644;48.914;2.254;2023-07-29T04:57:21;0.50;0.50;0.25
75960;PMS7003;64644;48.914;2.254;2023-07-29T04:59:47;1.00;1.00;0.00
75960;PMS7003;64644;48.914;2.254;2023-07-29T05:02:12;1.00;1.00;0.00
75960;PMS7003;64644;48.914;2.254;2023-07-29T05:04:37;2.00;2.00;2.00
75960;PMS7003;64644;48.914;2.254;2023-07-29T05:07:03;1.00;1.00;1.00
75960;PMS7003;64644;48.914;2.254;2023-07-29T05:09:28;4.00;3.00;1.00
75960;PMS7003;64644;48.914;2.254;2023-07-29T05:11:54;0.00;0.00;0.00
75960;PMS7003;64644;48.914;2.254;2023-07-29T05:14:19;2.75;2.00;2.00
75960;PMS7003;64644;48.914;2.254;2023-07-29T05:16:44;1.25;1.25;1.00
75960;PMS7003;64644;48.914;2.254;2023-07-29T05:19:10;3.25;1.25;1.25
75960;PMS7003;64644;48.914;2.254;2023-07-29T05:21:37;1.25;1.25;1.00
75960;PMS7003;64644;48.914;2.254;2023-07-29T05:24:03;1.50;1.00;0.75
75960;PMS7003;64644;48.914;2.254;2023-07-29T05:26:28;1.00;1.00;1.00
75960;PMS7003;64644;48.914;2.254;2023-07-29T05:28:54;2.00;0.75;0.75
75960;PMS7003;64644;48.914;2.254;2023-07-29T05:31:19;1.50;1.50;1.00
75960;PMS7003;64644;48.914;2.254;2023-07-29T05:33:44;1.50;1.50;1.00
75960;PMS7003;64644;48.914;2.254;2023-07-29T05:36:10;0.75;0.75;0.00
75960;PMS7003;64644;48.914;2.254;2023-07-29T05:38:35;1.00;1.00;1.00
75960;PMS7003;64644;48.914;2.254;2023-07-29T05:41:00;1.75;1.75;1.25
75960;PMS7003;64644;48.914;2.254;2023-07-29T05:43:26;1.75;1.00;1.00
75960;PMS7003;64644;48.914;2.254;2023-07-29T05:45:52;2.00;1.00;1.00
75960;PMS7003;64644;48.914;2.254;2023-07-29T05:48:19;1.00;1.00;0.50
75960;PMS7003;64644;48.914;2.254;2023-07-29T05:50:44;1.00;1.00;1.00
75960;PMS7003;64644;48.914;2.254;2023-07-29T05:53:10;2.00;1.00;0.25
75960;PMS7003;64644;48.914;2.254;2023-07-29T05:55:35;1.00;1.00;1.00
75960;PMS7003;64644;48.914;2.254;2023-07-29T05:58:00;1.00;1.00;1.00
75960;PMS7003;64644;48.914;2.254;2023-07-29T06:00:25;1.00;1.00;1.00
75960;PMS7003;64644;48.914;2.254;2023-07-29T06:02:51;2.00;2.00;1.00
75960;PMS7003;64644;48.914;2.254;2023-07-29T06:05:16;1.50;1.50;1.00
75960;PMS7003;64644;48.914;2.254;2023-07-29T06:07:42;1.00;1.00;1.00
75960;PMS7003;64644;48.914;2.254;2023-07-29T06:10:10;2.00;1.00;1.00
75960;PMS7003;64644;48.914;2.254;2023-07-29T06:12:38;0.00;0.00;0.00
75960;PMS7003;64644;48.914;2.254;2023-07-29T06:15:04;1.50;1.00;0.25
75960;PMS7003;64644;48.914;2.254;2023-07-29T06:17:30;2.00;2.00;1.00
75960;PMS7003;64644;48.914;2.254;2023-07-29T06:19:55;1.00;1.00;1.00
75960;PMS7003;64644;48.914;2.254;2023-07-29T06:22:20;0.00;0.00;0.00
75960;PMS7003;64644;48.914;2.254;2023-07-29T06:24:46;0.75;0.75;0.25
75960;PMS7003;64644;48.914;2.254;2023-07-29T06:27:11;0.00;0.00;0.00
75960;PMS7003;64644;48.914;2.254;2023-07-29T06:29:36;2.25;2.25;1.00
75960;PMS7003;64644;48.914;2.254;2023-07-29T06:32:02;0.00;0.00;0.00
75960;PMS7003;64644;48.914;2.254;2023-07-29T06:34:27;1.00;1.00;0.75
75960;PMS7003;64644;48.914;2.254;2023-07-29T06:36:52;0.00;0.00;0.00
75960;PMS7003;64644;48.914;2.254;2023-07-29T06:39:18;1.00;1.00;0.00
75960;PMS7003;64644;48.914;2.254;2023-07-29T06:41:43;1.00;1.00;0.00
75960;PMS7003;64644;48.914;2.254;2023-07-29T06:44:08;1.00;1.00;1.00
75960;PMS7003;64644;48.914;2.254;2023-07-29T06:46:34;0.00;0.00;0.00
75960;PMS7003;64644;48.914;2.254;2023-07-29T06:48:59;0.00;0.00;0.00
75960;PMS7003;64644;48.914;2.254;2023-07-29T06:51:24;0.25;0.25;0.00
75960;PMS7003;64644;48.914;2.254;2023-07-29T06:53:50;0.50;0.50;0.50
75960;PMS7003;64644;48.914;2.254;2023-07-29T06:56:15;0.00;0.00;0.00
75960;PMS7003;64644;48.914;2.254;2023-07-29T06:58:41;0.00;0.00;0.00
75960;PMS7003;64644;48.914;2.254;2023-07-29T07:01:06;0.00;0.00;0.00
75960;PMS7003;64644;48.914;2.254;2023-07-29T07:03:31;0.00;0.00;0.00
75960;PMS7003;64644;48.914;2.254;2023-07-29T07:05:57;0.00;0.00;0.00
75960;PMS7003;64644;48.914;2.254;2023-07-29T07:08:22;0.00;0.00;0.00
75960;PMS7003;64644;48.914;2.254;2023-07-29T07:10:47;0.00;0.00;0.00
75960;PMS7003;64644;48.914;2.254;2023-07-29T07:13:13;1.00;1.00;0.00
75960;PMS7003;64644;48.914;2.254;2023-07-29T07:15:38;0.00;0.00;0.00
75960;PMS7003;64644;48.914;2.254;2023-07-29T07:18:03;0.00;0.00;0.00
75960;PMS7003;64644;48.914;2.254;2023-07-29T07:20:29;0.00;0.00;0.00
75960;PMS7003;64644;48.914;2.254;2023-07-29T07:22:54;0.25;0.00;0.00
75960;PMS7003;64644;48.914;2.254;2023-07-29T07:25:20;0.00;0.00;0.00
75960;PMS7003;64644;48.914;2.254;2023-07-29T07:27:46;0.00;0.00;0.00
75960;PMS7003;64644;48.914;2.254;2023-07-29T07:30:11;1.00;1.00;0.00
75960;PMS7003;64644;48.914;2.254;2023-07-29T07:32:36;0.50;0.50;0.00
75960;PMS7003;64644;48.914;2.254;2023-07-29T07:35:02;1.00;1.00;0.00
75960;PMS7003;64644;48.914;2.254;2023-07-29T07:37:27;0.25;0.25;0.00
75960;PMS7003;64644;48.914;2.254;2023-07-29T07:39:53;0.00;0.00;0.00
75960;PMS7003;64644;48.914;2.254;2023-07-29T07:42:18;0.75;0.75;0.00
75960;PMS7003;64644;48.914;2.254;2023-07-29T07:44:43;1.00;1.00;1.00
75960;PMS7003;64644;48.914;2.254;2023-07-29T07:47:08;0.00;0.00;0.00
75960;PMS7003;64644;48.914;2.254;2023-07-29T07:49:34;0.00;0.00;0.00
75960;PMS7003;64644;48.914;2.254;2023-07-29T07:51:59;0.00;0.00;0.00
75960;PMS7003;64644;48.914;2.254;2023-07-29T07:54:25;0.00;0.00;0.00
75960;PMS7003;64644;48.914;2.254;2023-07-29T07:56:50;0.50;0.00;0.00
75960;PMS7003;64644;48.914;2.254;2023-07-29T07:59:15;0.00;0.00;0.00
75960;PMS7003;64644;48.914;2.254;2023-07-29T08:01:41;0.00;0.00;0.00
75960;PMS7003;64644;48.914;2.254;2023-07-29T08:04:06;1.00;1.00;1.00
75960;PMS7003;64644;48.914;2.254;2023-07-29T08:06:32;0.00;0.00;0.00
75960;PMS7003;64644;48.914;2.254;2023-07-29T08:08:58;1.75;1.00;0.00
75960;PMS7003;64644;48.914;2.254;2023-07-29T08:11:23;0.00;0.00;0.00
75960;PMS7003;64644;48.914;2.254;2023-07-29T08:13:49;0.25;0.25;0.00
75960;PMS7003;64644;48.914;2.254;2023-07-29T08:16:14;1.00;1.00;0.75
75960;PMS7003;64644;48.914;2.254;2023-07-29T08:18:40;1.75;1.00;1.00
75960;PMS7003;64644;48.914;2.254;2023-07-29T08:21:05;2.00;2.00;1.00
75960;PMS7003;64644;48.914;2.254;2023-07-29T08:23:31;2.00;1.00;0.00
75960;PMS7003;64644;48.914;2.254;2023-07-29T08:25:58;1.00;1.00;1.00
75960;PMS7003;64644;48.914;2.254;2023-07-29T08:28:29;2.25;1.25;1.00
75960;PMS7003;64644;48.914;2.254;2023-07-29T08:30:56;1.75;1.25;0.50
75960;PMS7003;64644;48.914;2.254;2023-07-29T08:33:22;1.00;1.00;0.00
75960;PMS7003;64644;48.914;2.254;2023-07-29T08:35:47;1.00;1.00;0.50
75960;PMS7003;64644;48.914;2.254;2023-07-29T08:38:13;0.75;0.75;0.00
75960;PMS7003;64644;48.914;2.254;2023-07-29T08:40:41;1.00;1.00;1.00
75960;PMS7003;64644;48.914;2.254;2023-07-29T08:43:10;0.00;0.00;0.00
75960;PMS7003;64644;48.914;2.254;2023-07-29T08:45:38;1.00;1.00;0.75
75960;PMS7003;64644;48.914;2.254;2023-07-29T08:48:07;1.00;1.00;0.00
75960;PMS7003;64644;48.914;2.254;2023-07-29T08:50:35;1.00;1.00;0.25
75960;PMS7003;64644;48.914;2.254;2023-07-29T08:53:03;0.00;0.00;0.00
75960;PMS7003;64644;48.914;2.254;2023-07-29T08:55:29;0.00;0.00;0.00
75960;PMS7003;64644;48.914;2.254;2023-07-29T08:57:55;0.00;0.00;0.00
75960;PMS7003;64644;48.914;2.254;2023-07-29T09:00:23;1.00;1.00;1.00
75960;PMS7003;64644;48.914;2.254;2023-07-29T09:02:48;0.75;0.75;0.00
75960;PMS7003;64644;48.914;2.254;2023-07-29T09:05:13;1.00;1.00;1.00
75960;PMS7003;64644;48.914;2.254;2023-07-29T09:07:39;0.00;0.00;0.00
75960;PMS7003;64644;48.914;2.254;2023-07-29T09:10:08;0.00;0.00;0.00
75960;PMS7003;64644;48.914;2.254;2023-07-29T09:12:34;0.50;0.50;0.00
75960;PMS7003;64644;48.914;2.254;2023-07-29T09:15:00;0.00;0.00;0.00
75960;PMS7003;64644;48.914;2.254;2023-07-29T09:17:25;3.00;1.00;0.00
75960;PMS7003;64644;48.914;2.254;2023-07-29T09:19:51;0.00;0.00;0.00
75960;PMS7003;64644;48.914;2.254;2023-07-29T09:22:19;0.00;0.00;0.00
75960;PMS7003;64644;48.914;2.254;2023-07-29T09:24:46;0.50;0.50;0.50
75960;PMS7003;64644;48.914;2.254;2023-07-29T09:27:27;0.00;0.00;0.00
75960;PMS7003;64644;48.914;2.254;2023-07-29T09:29:55;1.00;1.00;1.00
75960;PMS7003;64644;48.914;2.254;2023-07-29T09:32:21;0.75;0.75;0.25
75960;PMS7003;64644;48.914;2.254;2023-07-29T09:34:47;0.00;0.00;0.00
75960;PMS7003;64644;48.914;2.254;2023-07-29T09:37:17;3.00;2.00;1.75
75960;PMS7003;64644;48.914;2.254;2023-07-29T09:39:46;1.00;1.00;0.00
75960;PMS7003;64644;48.914;2.254;2023-07-29T09:42:19;1.25;1.25;1.00
75960;PMS7003;64644;48.914;2.254;2023-07-29T09:44:45;1.00;1.00;1.00
75960;PMS7003;64644;48.914;2.254;2023-07-29T09:47:21;1.25;1.25;1.00
75960;PMS7003;64644;48.914;2.254;2023-07-29T09:49:47;1.00;1.00;1.00
75960;PMS7003;64644;48.914;2.254;2023-07-29T09:52:14;1.00;1.00;1.00
75960;PMS7003;64644;48.914;2.254;2023-07-29T09:54:41;1.00;1.00;1.00
75960;PMS7003;64644;48.914;2.254;2023-07-29T09:57:07;1.00;1.00;0.75
75960;PMS7003;64644;48.914;2.254;2023-07-29T09:59:33;1.75;1.75;1.00
75960;PMS7003;64644;48.914;2.254;2023-07-29T10:01:59;1.75;1.00;0.50
75960;PMS7003;64644;48.914;2.254;2023-07-29T10:04:25;2.00;1.00;0.00
75960;PMS7003;64644;48.914;2.254;2023-07-29T10:06:52;3.00;2.00;1.00
75960;PMS7003;64644;48.914;2.254;2023-07-29T10:09:17;2.00;2.00;1.00
75960;PMS7003;64644;48.914;2.254;2023-07-29T10:11:45;1.00;1.00;0.75
75960;PMS7003;64644;48.914;2.254;2023-07-29T10:14:11;1.00;1.00;1.00
75960;PMS7003;64644;48.914;2.254;2023-07-29T10:16:36;1.25;1.25;1.00
75960;PMS7003;64644;48.914;2.254;2023-07-29T10:19:04;1.00;1.00;1.00
75960;PMS7003;64644;48.914;2.254;2023-07-29T10:21:32;1.25;1.25;1.00
75960;PMS7003;64644;48.914;2.254;2023-07-29T10:24:01;1.00;1.00;1.00
75960;PMS7003;64644;48.914;2.254;2023-07-29T10:26:30;1.00;1.00;1.00
75960;PMS7003;64644;48.914;2.254;2023-07-29T10:28:59;2.00;2.00;1.00
75960;PMS7003;64644;48.914;2.254;2023-07-29T10:31:29;2.00;2.00;1.00
75960;PMS7003;64644;48.914;2.254;2023-07-29T10:33:57;2.25;2.25;2.00
75960;PMS7003;64644;48.914;2.254;2023-07-29T10:36:23;1.50;1.50;0.75
75960;PMS7003;64644;48.914;2.254;2023-07-29T10:38:49;5.00;2.00;2.00
75960;PMS7003;64644;48.914;2.254;2023-07-29T10:41:14;2.00;2.00;1.75
75960;PMS7003;64644;48.914;2.254;2023-07-29T10:43:40;1.00;1.00;1.00
75960;PMS7003;64644;48.914;2.254;2023-07-29T10:46:21;3.00;2.00;2.00
75960;PMS7003;64644;48.914;2.254;2023-07-29T10:54:01;3.50;2.00;2.00
75960;PMS7003;64644;48.914;2.254;2023-07-29T10:56:33;4.00;4.00;3.00
75960;PMS7003;64644;48.914;2.254;2023-07-29T10:59:02;2.75;2.75;2.50
75960;PMS7003;64644;48.914;2.254;2023-07-29T11:01:56;3.00;3.00;2.00
75960;PMS7003;64644;48.914;2.254;2023-07-29T11:04:27;1.00;1.00;1.00
75960;PMS7003;64644;48.914;2.254;2023-07-29T11:15:02;3.00;3.00;2.25
75960;PMS7003;64644;48.914;2.254;2023-07-29T11:17:34;2.25;2.25;2.00
75960;PMS7003;64644;48.914;2.254;2023-07-29T11:20:00;2.25;2.25;2.00
75960;PMS7003;64644;48.914;2.254;2023-07-29T11:22:29;1.25;1.25;1.00
75960;PMS7003;64644;48.914;2.254;2023-07-29T11:24:55;1.75;1.75;1.00
75960;PMS7003;64644;48.914;2.254;2023-07-29T11:27:21;2.00;2.00;2.00
75960;PMS7003;64644;48.914;2.254;2023-07-29T11:29:46;3.00;3.00;2.00
75960;PMS7003;64644;48.914;2.254;2023-07-29T11:32:12;2.00;2.00;1.00
75960;PMS7003;64644;48.914;2.254;2023-07-29T11:34:38;2.25;2.25;2.00
75960;PMS7003;64644;48.914;2.254;2023-07-29T11:37:05;2.50;2.00;1.00
75960;PMS7003;64644;48.914;2.254;2023-07-29T11:39:31;2.00;2.00;1.00
75960;PMS7003;64644;48.914;2.254;2023-07-29T11:41:57;0.00;0.00;0.00
75960;PMS7003;64644;48.914;2.254;2023-07-29T11:44:23;2.00;2.00;1.75
75960;PMS7003;64644;48.914;2.254;2023-07-29T11:46:49;1.25;1.25;1.00
75960;PMS7003;64644;48.914;2.254;2023-07-29T11:49:14;1.75;1.75;1.25
75960;PMS7003;64644;48.914;2.254;2023-07-29T11:51:41;2.00;2.00;1.00
75960;PMS7003;64644;48.914;2.254;2023-07-29T11:54:08;1.75;1.75;1.00
75960;PMS7003;64644;48.914;2.254;2023-07-29T11:56:33;1.50;1.00;1.00
75960;PMS7003;64644;48.914;2.254;2023-07-29T11:58:59;1.25;1.25;1.25
75960;PMS7003;64644;48.914;2.254;2023-07-29T12:01:27;0.00;0.00;0.00
75960;PMS7003;64644;48.914;2.254;2023-07-29T12:03:53;0.25;0.25;0.25
75960;PMS7003;64644;48.914;2.254;2023-07-29T12:06:20;0.50;0.50;0.50
75960;PMS7003;64644;48.914;2.254;2023-07-29T12:08:46;1.00;1.00;0.75
75960;PMS7003;64644;48.914;2.254;2023-07-29T12:11:12;1.25;1.00;1.00
75960;PMS7003;64644;48.914;2.254;2023-07-29T12:13:37;1.75;1.75;1.00
75960;PMS7003;64644;48.914;2.254;2023-07-29T12:16:03;1.00;0.50;0.00
75960;PMS7003;64644;48.914;2.254;2023-07-29T12:18:29;1.00;1.00;0.25
75960;PMS7003;64644;48.914;2.254;2023-07-29T12:20:58;0.00;0.00;0.00
75960;PMS7003;64644;48.914;2.254;2023-07-29T12:23:24;1.25;1.00;0.00
75960;PMS7003;64644;48.914;2.254;2023-07-29T12:25:56;2.00;0.25;0.25
75960;PMS7003;64644;48.914;2.254;2023-07-29T12:28:23;1.00;1.00;1.00
75960;PMS7003;64644;48.914;2.254;2023-07-29T12:30:52;1.50;1.50;1.00
75960;PMS7003;64644;48.914;2.254;2023-07-29T12:33:30;1.25;0.75;0.75
75960;PMS7003;64644;48.914;2.254;2023-07-29T12:36:00;1.00;1.00;1.00
75960;PMS7003;64644;48.914;2.254;2023-07-29T12:38:26;1.00;1.00;0.00
75960;PMS7003;64644;48.914;2.254;2023-07-29T12:40:52;1.75;0.00;0.00
75960;PMS7003;64644;48.914;2.254;2023-07-29T12:43:18;1.00;1.00;0.75
75960;PMS7003;64644;48.914;2.254;2023-07-29T12:45:43;1.00;1.00;1.00
75960;PMS7003;64644;48.914;2.254;2023-07-29T12:48:09;1.75;1.75;1.00
75960;PMS7003;64644;48.914;2.254;2023-07-29T12:50:35;1.75;1.50;1.00
75960;PMS7003;64644;48.914;2.254;2023-07-29T12:53:00;2.50;1.00;1.00
75960;PMS7003;64644;48.914;2.254;2023-07-29T12:55:26;2.00;1.00;1.00
75960;PMS7003;64644;48.914;2.254;2023-07-29T12:57:51;1.75;1.00;1.00
75960;PMS7003;64644;48.914;2.254;2023-07-29T13:00:17;1.00;1.00;1.00
75960;PMS7003;64644;48.914;2.254;2023-07-29T13:02:42;0.75;0.75;0.75
75960;PMS7003;64644;48.914;2.254;2023-07-29T13:05:09;2.25;1.75;0.75
75960;PMS7003;64644;48.914;2.254;2023-07-29T13:07:36;4.00;2.50;1.25
75960;PMS7003;64644;48.914;2.254;2023-07-29T13:10:02;1.00;1.00;1.00
75960;PMS7003;64644;48.914;2.254;2023-07-29T13:12:28;2.00;2.00;1.00
75960;PMS7003;64644;48.914;2.254;2023-07-29T13:14:53;0.25;0.25;0.00
75960;PMS7003;64644;48.914;2.254;2023-07-29T13:17:18;2.00;1.00;1.00
75960;PMS7003;64644;48.914;2.254;2023-07-29T13:19:44;0.50;0.50;0.00
75960;PMS7003;64644;48.914;2.254;2023-07-29T13:22:09;1.00;1.00;0.25
75960;PMS7003;64644;48.914;2.254;2023-07-29T13:24:34;1.75;1.75;1.00
75960;PMS7003;64644;48.914;2.254;2023-07-29T13:27:00;1.00;1.00;0.75
75960;PMS7003;64644;48.914;2.254;2023-07-29T13:29:25;1.50;1.00;1.00
75960;PMS7003;64644;48.914;2.254;2023-07-29T13:31:50;0.50;0.50;0.00
75960;PMS7003;64644;48.914;2.254;2023-07-29T13:34:16;3.00;2.00;1.00
75960;PMS7003;64644;48.914;2.254;2023-07-29T13:36:41;1.25;1.25;1.25
75960;PMS7003;64644;48.914;2.254;2023-07-29T13:39:07;1.00;1.00;0.00
75960;PMS7003;64644;48.914;2.254;2023-07-29T13:41:32;1.00;1.00;0.50
75960;PMS7003;64644;48.914;2.254;2023-07-29T13:43:57;2.00;2.00;1.00
75960;PMS7003;64644;48.914;2.254;2023-07-29T13:46:23;0.25;0.25;0.00
75960;PMS7003;64644;48.914;2.254;2023-07-29T13:48:48;1.25;1.25;1.25
75960;PMS7003;64644;48.914;2.254;2023-07-29T13:51:14;1.00;1.00;1.00
75960;PMS7003;64644;48.914;2.254;2023-07-29T13:53:39;1.00;1.00;1.00
75960;PMS7003;64644;48.914;2.254;2023-07-29T13:56:05;1.00;1.00;1.00
75960;PMS7003;64644;48.914;2.254;2023-07-29T13:58:30;0.50;0.50;0.50
75960;PMS7003;64644;48.914;2.254;2023-07-29T14:00:55;1.75;1.00;1.00
75960;PMS7003;64644;48.914;2.254;2023-07-29T14:03:25;1.00;1.00;0.75
75960;PMS7003;64644;48.914;2.254;2023-07-29T14:05:50;2.50;1.00;1.00
75960;PMS7003;64644;48.914;2.254;2023-07-29T14:08:15;0.50;0.50;0.50
75960;PMS7003;64644;48.914;2.254;2023-07-29T14:10:41;0.75;0.75;0.50
75960;PMS7003;64644;48.914;2.254;2023-07-29T14:13:06;1.00;1.00;1.00
75960;PMS7003;64644;48.914;2.254;2023-07-29T14:15:31;1.50;1.00;1.00
75960;PMS7003;64644;48.914;2.254;2023-07-29T14:17:57;1.00;1.00;0.00
75960;PMS7003;64644;48.914;2.254;2023-07-29T14:20:23;1.00;0.00;0.00
75960;PMS7003;64644;48.914;2.254;2023-07-29T14:22:48;1.00;1.00;1.00
75960;PMS7003;64644;48.914;2.254;2023-07-29T14:25:14;0.00;0.00;0.00
75960;PMS7003;64644;48.914;2.254;2023-07-29T14:27:40;1.00;1.00;1.00
75960;PMS7003;64644;48.914;2.254;2023-07-29T14:30:06;1.00;1.00;1.00
75960;PMS7003;64644;48.914;2.254;2023-07-29T14:32:32;1.25;1.25;1.00
75960;PMS7003;64644;48.914;2.254;2023-07-29T14:34:57;0.75;0.75;0.00
75960;PMS7003;64644;48.914;2.254;2023-07-29T14:37:23;1.00;1.00;0.25